Gladstone, Australia
Current Conditions -  °F | °C
As of 2:00 PM on Friday 19 Dec 2014 (Local Time) from YGLA Reporting Station
Overcast Overcast  
Wind Chill: 81°   Ceiling: 2900
Heat Index: 83°   Visibility: 6mi
Dew Point: 68°   Wind: 2mph
Humidity: 65%   Direction: 290°WNW
Pressure: 29.85"   Gusts: NA
Location:  23.85°S, 151.25°E
Report Text: YGLA 190400Z AUTO 29002KT 9999 // OVC029 27/20 Q1011
Loading
Personal Weather Stations






























Interactive Weather Map New forecast layout! Learn more

10-Day Weather Forecast

Advertisements
Track Severe Weather on mobile